Terminal Aerodrome Forecast
Issued by NWS

Home | Current Version | Previous Version | Text Only | Print | Product List | Glossary On
Versions: 1 2 3 4 5 6 7 8 9 10 11 12
898
FTUS45 KABQ 201740
TAFROW
TAF
KROW 201740Z 2018/2118 22011KT P6SM SCT250
      TEMPO 2020/2024 22013G23KT
     FM210800 22013G23KT P6SM SCT200
     FM211630 25025G35KT P6SM SCT100=

USA.gov is the U.S. government's official web portal to all federal, state and local government web resources and services.